createdAt,value
2022-08-07T00:00:25.554Z,99276.20
2022-08-07T00:02:53.739Z,99274.71
2022-08-07T00:05:23.713Z,99279.91
2022-08-07T00:07:59.865Z,99278.40
2022-08-07T00:10:29.770Z,99278.84
2022-08-07T00:13:23.538Z,99281.91
2022-08-07T00:15:52.662Z,99280.35
2022-08-07T00:18:24.351Z,99281.89
2022-08-07T00:20:54.893Z,99281.16
2022-08-07T00:23:24.894Z,99287.48
2022-08-07T00:26:00.188Z,99290.39
2022-08-07T00:28:33.384Z,99287.54
2022-08-07T00:31:12.764Z,99290.25
2022-08-07T00:33:43.603Z,99290.05
2022-08-07T00:36:14.539Z,99293.08
2022-08-07T00:38:43.887Z,99291.13
2022-08-07T00:41:14.675Z,99288.98
2022-08-07T00:44:01.748Z,99295.21
2022-08-07T00:46:32.816Z,99290.29
2022-08-07T00:49:03.149Z,99292.77
2022-08-07T00:51:58.368Z,99295.23
2022-08-07T00:54:19.769Z,99300.08
2022-08-07T00:56:49.571Z,99298.83
2022-08-07T00:59:19.961Z,99297.41
2022-08-07T01:01:48.655Z,99296.60
2022-08-07T01:04:21.561Z,99293.82
2022-08-07T01:06:52.132Z,99294.30
2022-08-07T01:10:06.373Z,99295.58
2022-08-07T01:12:28.147Z,99291.94
2022-08-07T01:15:01.523Z,99293.68
2022-08-07T01:17:32.344Z,99294.14
2022-08-07T01:20:06.688Z,99294.96
2022-08-07T01:22:46.471Z,99293.49
2022-08-07T01:25:40.338Z,99293.38
2022-08-07T01:28:09.007Z,99297.84
2022-08-07T01:30:40.100Z,99295.51
2022-08-07T01:33:10.037Z,99292.99
2022-08-07T01:35:53.378Z,99293.23
2022-08-07T01:38:25.131Z,99290.92
2022-08-07T01:40:59.397Z,99290.06
2022-08-07T01:43:34.677Z,99287.41
2022-08-07T01:46:08.333Z,99285.13
2022-08-07T01:48:46.805Z,99286.23
2022-08-07T01:52:04.299Z,99282.42
2022-08-07T01:54:32.490Z,99276.62
2022-08-07T01:57:08.381Z,99275.84
2022-08-07T01:59:46.125Z,99274.80
2022-08-07T02:03:11.477Z,99274.46
2022-08-07T02:05:15.985Z,99278.22
2022-08-07T02:08:08.645Z,99276.60
2022-08-07T02:10:42.290Z,99275.07
2022-08-07T02:13:13.459Z,99271.96
2022-08-07T02:15:53.287Z,99272.38
2022-08-07T02:18:22.220Z,99273.41
2022-08-07T02:20:55.920Z,99277.67
2022-08-07T02:23:26.177Z,99279.92
2022-08-07T02:26:31.043Z,99284.88
2022-08-07T02:28:42.986Z,99288.89
2022-08-07T02:31:18.872Z,99294.66
2022-08-07T02:34:03.523Z,99295.23
2022-08-07T02:36:41.458Z,99296.25
2022-08-07T02:39:17.473Z,99295.23
2022-08-07T02:42:02.682Z,99294.00
2022-08-07T02:44:34.326Z,99288.96
2022-08-07T02:47:05.260Z,99290.45
2022-08-07T02:49:57.852Z,99294.11
2022-08-07T02:52:30.958Z,99294.36
2022-08-07T02:55:05.010Z,99297.17
2022-08-07T02:57:55.615Z,99296.60
2022-08-07T03:00:27.147Z,99295.34
2022-08-07T03:02:58.804Z,99296.20
2022-08-07T03:05:29.200Z,99299.64
2022-08-07T03:08:10.523Z,99299.20
2022-08-07T03:10:46.630Z,99295.55
2022-08-07T03:13:19.771Z,99294.27
2022-08-07T03:15:56.345Z,99295.99
2022-08-07T03:18:34.728Z,99296.24
2022-08-07T03:21:08.622Z,99298.13
2022-08-07T03:24:19.246Z,99296.73
2022-08-07T03:26:32.238Z,99292.95
2022-08-07T03:29:04.202Z,99296.02
2022-08-07T03:31:42.521Z,99293.66
2022-08-07T03:34:18.198Z,99293.18
2022-08-07T03:36:46.179Z,99294.79
2022-08-07T03:39:18.005Z,99293.95
2022-08-07T03:42:07.582Z,99300.27
2022-08-07T03:44:38.046Z,99300.73
2022-08-07T03:47:13.398Z,99299.73
2022-08-07T03:49:47.719Z,99305.14
2022-08-07T03:52:26.390Z,99305.34
2022-08-07T03:55:07.171Z,99304.95
2022-08-07T03:58:33.315Z,99303.11
2022-08-07T04:00:29.372Z,99300.55
2022-08-07T04:03:04.369Z,99308.02
2022-08-07T04:05:41.037Z,99310.09
2022-08-07T04:08:16.141Z,99306.50
2022-08-07T04:10:54.276Z,99310.53
2022-08-07T04:14:10.726Z,99314.60
2022-08-07T04:16:31.196Z,99315.89
2022-08-07T04:19:12.435Z,99312.93
2022-08-07T04:21:59.526Z,99308.42
2022-08-07T04:24:38.687Z,99315.60
2022-08-07T04:27:15.121Z,99315.68
2022-08-07T04:30:02.313Z,99315.05
2022-08-07T04:32:39.341Z,99315.89
2022-08-07T04:35:13.087Z,99320.14
2022-08-07T04:38:02.789Z,99327.36
2022-08-07T04:40:29.803Z,99332.92
2022-08-07T04:43:01.675Z,99333.02
2022-08-07T04:45:58.035Z,99329.89
2022-08-07T04:48:38.185Z,99328.94
2022-08-07T04:51:12.521Z,99327.93
2022-08-07T04:54:05.348Z,99330.91
2022-08-07T04:58:10.234Z,99330.33
2022-08-07T05:00:09.920Z,99333.51
2022-08-07T05:02:32.465Z,99334.77
2022-08-07T05:05:11.484Z,99331.77
2022-08-07T05:07:51.791Z,99328.63
2022-08-07T05:10:42.931Z,99331.83
2022-08-07T05:14:52.819Z,99334.73
2022-08-07T05:16:07.978Z,99335.14
2022-08-07T05:18:41.188Z,99334.52
2022-08-07T05:21:10.659Z,99337.17
2022-08-07T05:23:45.468Z,99334.98
2022-08-07T05:26:23.818Z,99336.23
2022-08-07T05:28:58.114Z,99341.20
2022-08-07T05:31:35.048Z,99338.33
2022-08-07T05:34:10.937Z,99341.80
2022-08-07T05:36:44.150Z,99344.95
2022-08-07T05:40:14.007Z,99345.71
2022-08-07T05:42:13.406Z,99345.90
2022-08-07T05:44:52.784Z,99345.55
2022-08-07T05:47:37.857Z,99344.73
2022-08-07T05:50:19.537Z,99342.92
2022-08-07T05:52:47.591Z,99344.75
2022-08-07T05:55:15.093Z,99344.04
2022-08-07T05:57:46.245Z,99344.81
2022-08-07T06:00:16.560Z,99341.54
2022-08-07T06:02:51.820Z,99343.20
2022-08-07T06:05:28.453Z,99344.17
2022-08-07T06:08:29.475Z,99340.86
2022-08-07T06:10:51.311Z,99339.64
2022-08-07T06:13:20.902Z,99346.77
2022-08-07T06:16:08.263Z,99348.27
2022-08-07T06:18:39.826Z,99344.54
2022-08-07T06:22:15.469Z,99338.63
2022-08-07T06:24:45.762Z,99343.54
2022-08-07T06:26:46.792Z,99346.11
2022-08-07T06:29:14.487Z,99339.54
2022-08-07T06:31:49.800Z,99339.81
2022-08-07T06:34:20.421Z,99338.58
2022-08-07T06:36:51.844Z,99343.16
2022-08-07T06:40:16.130Z,99344.64
2022-08-07T06:42:15.714Z,99341.73
2022-08-07T06:44:54.762Z,99340.64
2022-08-07T06:47:24.039Z,99339.80
2022-08-07T06:49:58.592Z,99339.11
2022-08-07T06:52:35.531Z,99338.84
2022-08-07T06:55:33.714Z,99335.16
2022-08-07T06:57:59.454Z,99340.70
2022-08-07T07:00:32.307Z,99342.95
2022-08-07T07:03:11.008Z,99343.80
2022-08-07T07:06:04.151Z,99348.39
2022-08-07T07:08:29.283Z,99351.63
2022-08-07T07:10:57.879Z,99349.52
2022-08-07T07:13:55.669Z,99350.53
2022-08-07T07:16:30.019Z,99345.19
2022-08-07T07:19:54.378Z,99344.80
2022-08-07T07:22:05.138Z,99345.05
2022-08-07T07:24:43.113Z,99345.80
2022-08-07T07:27:28.007Z,99340.84
2022-08-07T07:30:09.038Z,99341.10
2022-08-07T07:32:42.706Z,99345.79
2022-08-07T07:35:12.223Z,99345.41
2022-08-07T07:37:52.621Z,99341.86
2022-08-07T07:40:32.409Z,99337.66
2022-08-07T07:43:11.568Z,99332.91
2022-08-07T07:46:37.565Z,99329.55
2022-08-07T07:48:36.050Z,99332.83
2022-08-07T07:51:08.003Z,99332.64
2022-08-07T07:53:51.289Z,99338.83
2022-08-07T07:56:29.757Z,99336.19
2022-08-07T07:59:01.705Z,99335.39
2022-08-07T08:02:03.776Z,99334.16
2022-08-07T08:04:20.246Z,99324.64
2022-08-07T08:06:53.985Z,99326.60
2022-08-07T08:09:29.528Z,99328.40
2022-08-07T08:12:02.335Z,99332.14
2022-08-07T08:14:34.328Z,99340.21
2022-08-07T08:17:56.682Z,99338.85
2022-08-07T08:20:18.714Z,99343.27
2022-08-07T08:23:02.240Z,99342.82
2022-08-07T08:25:49.023Z,99349.67
2022-08-07T08:28:43.404Z,99351.89
2022-08-07T08:31:22.837Z,99348.89
2022-08-07T08:33:58.727Z,99347.15
2022-08-07T08:36:30.250Z,99350.73
2022-08-07T08:39:02.128Z,99350.83
2022-08-07T08:41:57.123Z,99355.84
2022-08-07T08:44:44.586Z,99353.02
2022-08-07T08:47:22.211Z,99350.06
2022-08-07T08:50:05.694Z,99347.55
2022-08-07T08:52:51.576Z,99346.00
2022-08-07T08:55:54.762Z,99344.30
2022-08-07T08:58:43.305Z,99346.81
2022-08-07T09:01:19.211Z,99349.96
2022-08-07T09:04:07.256Z,99351.88
2022-08-07T09:06:57.627Z,99356.48
2022-08-07T09:09:42.799Z,99353.49
2022-08-07T09:12:31.835Z,99351.80
2022-08-07T09:16:21.759Z,99348.30
2022-08-07T09:18:22.873Z,99345.48
2022-08-07T09:21:13.910Z,99340.22
2022-08-07T09:24:58.747Z,99341.70
2022-08-07T09:28:00.757Z,99336.47
2022-08-07T09:30:48.839Z,99332.69
2022-08-07T09:33:57.956Z,99320.62
2022-08-07T09:36:35.906Z,99320.29
2022-08-07T09:39:53.083Z,99313.67
2022-08-07T09:42:33.606Z,99314.21
2022-08-07T09:47:24.104Z,99315.67
2022-08-07T09:50:02.499Z,99314.59
2022-08-07T09:52:10.190Z,99315.29
2022-08-07T09:54:48.005Z,99303.84
2022-08-07T09:57:46.860Z,99304.39
2022-08-07T10:00:20.338Z,99301.09
2022-08-07T10:04:06.153Z,99301.63
2022-08-07T10:06:19.790Z,99296.35
2022-08-07T10:09:08.734Z,99298.88
2022-08-07T10:12:01.518Z,99297.70
2022-08-07T10:14:31.991Z,99290.05
2022-08-07T10:17:16.950Z,99289.57
2022-08-07T10:19:53.067Z,99289.18
2022-08-07T10:22:51.055Z,99281.10
2022-08-07T10:25:52.967Z,99286.23
2022-08-07T10:28:37.003Z,99285.10
2022-08-07T10:31:21.277Z,99282.72
2022-08-07T10:34:15.506Z,99273.12
2022-08-07T10:36:58.539Z,99272.77
2022-08-07T10:39:41.713Z,99269.73
2022-08-07T10:42:37.362Z,99265.42
2022-08-07T10:45:45.404Z,99263.75
2022-08-07T10:48:20.032Z,99263.60
2022-08-07T10:50:54.406Z,99259.95
2022-08-07T10:53:44.883Z,99255.75
2022-08-07T10:56:37.129Z,99252.41
2022-08-07T10:59:06.858Z,99246.09
2022-08-07T11:01:52.060Z,99248.12
2022-08-07T11:04:46.302Z,99243.23
2022-08-07T11:07:58.833Z,99236.32
2022-08-07T11:10:27.534Z,99240.08
2022-08-07T11:13:02.833Z,99238.32
2022-08-07T11:15:35.622Z,99234.84
2022-08-07T11:18:14.188Z,99234.20
2022-08-07T11:20:49.323Z,99228.15
2022-08-07T11:23:30.739Z,99231.10
2022-08-07T11:26:25.579Z,99228.70
2022-08-07T11:29:05.729Z,99229.12
2022-08-07T11:31:56.631Z,99222.98
2022-08-07T11:34:40.979Z,99219.77
2022-08-07T11:37:38.473Z,99218.09
2022-08-07T11:40:36.118Z,99213.27
2022-08-07T11:43:15.366Z,99220.54
2022-08-07T11:46:14.064Z,99215.02
2022-08-07T11:49:50.267Z,99206.61
2022-08-07T11:52:19.221Z,99208.38
2022-08-07T11:56:15.658Z,99201.65
2022-08-07T11:58:33.416Z,99202.71
2022-08-07T12:01:20.124Z,99201.45
2022-08-07T12:04:12.105Z,99198.56
2022-08-07T12:06:50.897Z,99198.23
2022-08-07T12:09:29.065Z,99192.98
2022-08-07T12:12:10.913Z,99186.40
2022-08-07T12:14:55.999Z,99184.70
2022-08-07T12:17:38.238Z,99183.55
2022-08-07T12:20:26.310Z,99181.23
2022-08-07T12:23:01.854Z,99176.00
2022-08-07T12:26:21.393Z,99170.45
2022-08-07T12:28:49.798Z,99170.00
2022-08-07T12:31:52.905Z,99174.42
2022-08-07T12:34:34.843Z,99169.43
2022-08-07T12:37:08.291Z,99167.13
2022-08-07T12:39:50.818Z,99166.48
2022-08-07T12:42:27.815Z,99164.11
2022-08-07T12:44:58.131Z,99161.42
2022-08-07T12:47:37.522Z,99161.99
2022-08-07T12:50:38.078Z,99159.71
2022-08-07T12:53:29.337Z,99154.31
2022-08-07T12:56:22.102Z,99153.17
2022-08-07T12:58:56.893Z,99153.07
2022-08-07T13:01:40.236Z,99151.84
2022-08-07T13:04:34.589Z,99147.05
2022-08-07T13:08:12.136Z,99143.27
2022-08-07T13:10:39.846Z,99148.07
2022-08-07T13:13:48.535Z,99145.30
2022-08-07T13:16:36.745Z,99142.66
2022-08-07T13:19:34.887Z,99134.98
2022-08-07T13:22:27.577Z,99131.52
2022-08-07T13:25:03.085Z,99128.45
2022-08-07T13:28:11.127Z,99127.34
2022-08-07T13:30:41.399Z,99133.48
2022-08-07T13:34:33.648Z,99133.80
2022-08-07T13:36:25.728Z,99127.00
2022-08-07T13:39:49.749Z,99126.39
2022-08-07T13:42:19.286Z,99124.34
2022-08-07T13:44:55.511Z,99119.12
2022-08-07T13:48:07.819Z,99121.63
2022-08-07T13:50:32.956Z,99115.22
2022-08-07T13:53:21.955Z,99109.62
2022-08-07T13:55:54.587Z,99106.58
2022-08-07T13:58:40.762Z,99103.44
2022-08-07T14:01:13.195Z,99110.77
2022-08-07T14:04:07.216Z,99107.00
2022-08-07T14:06:34.460Z,99105.17
2022-08-07T14:09:04.666Z,99095.82
2022-08-07T14:12:00.291Z,99091.35
2022-08-07T14:14:43.629Z,99094.59
2022-08-07T14:18:13.193Z,99091.02
2022-08-07T14:20:40.473Z,99092.98
2022-08-07T14:23:09.219Z,99089.41
2022-08-07T14:25:47.931Z,99093.61
2022-08-07T14:28:18.143Z,99087.66
2022-08-07T14:30:52.294Z,99086.41
2022-08-07T14:33:22.356Z,99084.02
2022-08-07T14:35:55.842Z,99072.42
2022-08-07T14:41:18.286Z,99071.39
2022-08-07T14:44:11.926Z,99070.23
2022-08-07T14:46:51.729Z,99070.13
2022-08-07T14:52:12.244Z,99056.77
2022-08-07T14:54:44.876Z,99059.05
2022-08-07T14:57:19.711Z,99057.34
2022-08-07T15:00:04.310Z,99058.90
2022-08-07T15:02:36.861Z,99050.80
2022-08-07T15:07:52.824Z,99043.58
2022-08-07T15:10:26.825Z,99038.75
2022-08-07T15:12:58.180Z,99038.66
2022-08-07T15:15:38.482Z,99045.33
2022-08-07T15:18:14.332Z,99046.58
2022-08-07T15:21:03.823Z,99037.95
2022-08-07T15:25:14.386Z,99037.50
2022-08-07T15:26:42.993Z,99032.73
2022-08-07T15:30:09.322Z,99042.14
2022-08-07T15:32:04.864Z,99039.71
2022-08-07T15:34:50.813Z,99039.31
2022-08-07T15:37:29.162Z,99040.09
2022-08-07T15:40:34.243Z,99038.84
2022-08-07T15:49:15.213Z,99034.01
2022-08-07T15:54:34.138Z,99034.47
2022-08-07T15:57:02.907Z,99032.54
2022-08-07T15:59:39.122Z,99026.39
2022-08-07T16:02:08.659Z,99025.98
2022-08-07T16:04:37.953Z,99023.62
2022-08-07T16:08:29.047Z,99018.45
2022-08-07T16:10:08.719Z,99018.23
2022-08-07T16:13:18.028Z,99018.15
2022-08-07T16:15:59.632Z,99015.78
2022-08-07T16:18:49.584Z,99013.67
2022-08-07T16:21:57.147Z,99012.48
2022-08-07T16:24:34.201Z,99009.48
2022-08-07T16:27:18.007Z,99004.41
2022-08-07T16:30:10.583Z,99006.25
2022-08-07T16:32:46.317Z,99006.72
2022-08-07T16:35:56.591Z,99001.01
2022-08-07T16:38:59.971Z,99006.61
2022-08-07T16:41:18.339Z,98998.81
2022-08-07T16:44:08.611Z,98998.23
2022-08-07T16:47:27.333Z,99001.13
2022-08-07T16:50:20.024Z,99007.24
2022-08-07T16:54:02.639Z,99007.89
2022-08-07T16:56:10.560Z,99007.90
2022-08-07T16:59:10.866Z,99015.58
2022-08-07T17:02:09.106Z,99016.98
2022-08-07T17:04:51.086Z,99015.46
2022-08-07T17:07:53.827Z,99010.26
2022-08-07T17:10:32.403Z,99008.77
2022-08-07T17:13:23.772Z,99007.22
2022-08-07T17:16:17.163Z,99010.58
2022-08-07T17:19:15.572Z,99007.91
2022-08-07T17:21:51.500Z,99009.75
2022-08-07T17:24:54.587Z,99012.66
2022-08-07T17:27:39.896Z,99015.11
2022-08-07T17:30:20.295Z,99014.71
2022-08-07T17:34:08.526Z,99016.64
2022-08-07T17:36:12.039Z,99016.67
2022-08-07T17:39:10.379Z,99021.02
2022-08-07T17:42:02.023Z,99025.74
2022-08-07T17:44:50.119Z,99023.75
2022-08-07T17:47:38.133Z,99025.88
2022-08-07T17:50:16.725Z,99026.92
2022-08-07T17:52:51.304Z,99035.73
2022-08-07T17:56:00.902Z,99036.96
2022-08-07T17:58:31.099Z,99040.26
2022-08-07T18:01:02.910Z,99040.34
2022-08-07T18:04:06.836Z,99042.89
2022-08-07T18:06:42.997Z,99045.27
2022-08-07T18:09:16.919Z,99042.34
2022-08-07T18:12:16.800Z,99045.79
2022-08-07T18:14:38.274Z,99045.94
2022-08-07T18:18:33.059Z,99051.31
2022-08-07T18:21:10.316Z,99056.30
2022-08-07T18:23:43.307Z,99059.39
2022-08-07T18:26:20.075Z,99064.04
2022-08-07T18:28:58.193Z,99063.44
2022-08-07T18:31:50.076Z,99065.55
2022-08-07T18:34:39.235Z,99070.79
2022-08-07T18:38:57.382Z,99072.57
2022-08-07T18:40:42.819Z,99069.21
2022-08-07T18:43:49.106Z,99067.66
2022-08-07T18:46:29.372Z,99073.38
2022-08-07T18:50:31.465Z,99079.23
2022-08-07T18:52:37.675Z,99077.41
2022-08-07T18:55:55.767Z,99075.95
2022-08-07T18:58:39.630Z,99081.05
2022-08-07T19:02:18.899Z,99077.94
2022-08-07T19:04:09.344Z,99081.54
2022-08-07T19:06:56.442Z,99081.81
2022-08-07T19:09:57.593Z,99081.09
2022-08-07T19:12:57.812Z,99081.73
2022-08-07T19:16:05.472Z,99079.62
2022-08-07T19:18:34.023Z,99080.40
2022-08-07T19:21:44.358Z,99081.32
2022-08-07T19:24:02.449Z,99087.61
2022-08-07T19:27:09.361Z,99088.70
2022-08-07T19:31:04.084Z,99095.94
2022-08-07T19:32:28.838Z,99101.45
2022-08-07T19:35:12.712Z,99104.67
2022-08-07T19:37:56.874Z,99104.52
2022-08-07T19:40:30.933Z,99102.70
2022-08-07T19:43:02.398Z,99104.66
2022-08-07T19:46:09.359Z,99106.77
2022-08-07T19:48:30.841Z,99107.52
2022-08-07T19:51:19.351Z,99109.91
2022-08-07T19:54:29.542Z,99111.96
2022-08-07T19:57:52.037Z,99110.90
2022-08-07T19:59:40.939Z,99111.48
2022-08-07T20:02:19.533Z,99115.17
2022-08-07T20:04:50.351Z,99117.19
2022-08-07T20:07:48.083Z,99120.95
2022-08-07T20:10:35.952Z,99123.27
2022-08-07T20:13:22.929Z,99127.93
2022-08-07T20:15:54.209Z,99125.80
2022-08-07T20:18:33.559Z,99133.74
2022-08-07T20:21:21.168Z,99132.74
2022-08-07T20:24:01.123Z,99132.05
2022-08-07T20:26:38.539Z,99129.55
2022-08-07T20:29:48.180Z,99133.17
2022-08-07T20:32:06.466Z,99145.58
2022-08-07T20:34:50.658Z,99148.77
2022-08-07T20:37:55.616Z,99147.71
2022-08-07T20:40:32.280Z,99146.64
2022-08-07T20:43:02.932Z,99145.33
2022-08-07T20:46:26.611Z,99141.52
2022-08-07T20:48:29.522Z,99142.54
2022-08-07T20:51:00.699Z,99141.34
2022-08-07T20:54:03.533Z,99142.87
2022-08-07T20:56:26.104Z,99143.35
2022-08-07T20:58:58.630Z,99147.79
2022-08-07T21:01:29.673Z,99147.82
2022-08-07T21:04:21.685Z,99151.36
2022-08-07T21:06:53.535Z,99150.74
2022-08-07T21:09:28.621Z,99152.81
2022-08-07T21:12:15.254Z,99154.11
2022-08-07T21:15:01.314Z,99152.56
2022-08-07T21:18:20.243Z,99153.62
2022-08-07T21:20:30.400Z,99156.45
2022-08-07T21:23:08.530Z,99156.37
2022-08-07T21:25:56.423Z,99151.11
2022-08-07T21:28:49.900Z,99156.80
2022-08-07T21:32:43.124Z,99153.16
2022-08-07T21:34:32.265Z,99155.43
2022-08-07T21:37:08.839Z,99155.23
2022-08-07T21:39:59.808Z,99158.95
2022-08-07T21:42:56.119Z,99162.65
2022-08-07T21:46:09.101Z,99165.45
2022-08-07T21:48:42.373Z,99165.23
2022-08-07T21:51:25.850Z,99162.35
2022-08-07T21:54:00.845Z,99159.59
2022-08-07T21:56:52.023Z,99163.23
2022-08-07T22:00:02.945Z,99163.82
2022-08-07T22:02:27.932Z,99164.89
2022-08-07T22:05:00.463Z,99162.27
2022-08-07T22:07:48.804Z,99160.29
2022-08-07T22:10:24.539Z,99165.40
2022-08-07T22:13:02.933Z,99163.77
2022-08-07T22:16:38.482Z,99160.02
2022-08-07T22:18:43.307Z,99160.13
2022-08-07T22:21:21.890Z,99156.77
2022-08-07T22:24:09.385Z,99162.12
2022-08-07T22:26:51.302Z,99164.05
2022-08-07T22:29:37.785Z,99164.44
2022-08-07T22:32:43.872Z,99160.60
2022-08-07T22:35:11.614Z,99159.23
2022-08-07T22:38:09.978Z,99153.96
2022-08-07T22:41:09.053Z,99151.25
2022-08-07T22:43:42.667Z,99149.73
2022-08-07T22:47:03.809Z,99148.92
2022-08-07T22:49:23.413Z,99150.04
2022-08-07T22:52:11.123Z,99150.12
2022-08-07T22:55:14.861Z,99145.91
2022-08-07T22:58:06.491Z,99146.90
2022-08-07T23:00:41.044Z,99141.13
2022-08-07T23:03:10.969Z,99142.31
2022-08-07T23:06:09.742Z,99140.27
2022-08-07T23:08:58.578Z,99143.48
2022-08-07T23:11:59.339Z,99141.55
2022-08-07T23:14:49.598Z,99137.87
2022-08-07T23:17:41.960Z,99137.02
2022-08-07T23:20:51.648Z,99141.29
2022-08-07T23:24:06.156Z,99138.33
2022-08-07T23:26:23.342Z,99136.36
2022-08-07T23:29:43.769Z,99136.98
2022-08-07T23:34:21.524Z,99135.63
2022-08-07T23:35:18.382Z,99141.86
2022-08-07T23:38:19.247Z,99143.98
2022-08-07T23:41:19.788Z,99145.93
2022-08-07T23:44:12.980Z,99148.48
2022-08-07T23:46:53.053Z,99139.54
2022-08-07T23:49:50.130Z,99145.40
2022-08-07T23:53:02.037Z,99146.54
2022-08-07T23:55:53.635Z,99142.61
2022-08-07T23:58:26.498Z,99139.69
